Tubul — A8VP8 — position and weather

sailwx.info

Track history (hours):
 
Tides and Currents Weather Stations Pressure Air Temp Water Temp Dewpoint Dewpoint Depression Visibility Wind Speed Wind Dir Waves Ship Positions

Tubul

Last reported at 2016-May-05 01:33 UTC. Time now 2016-May-06 20:43 UTC.
Position S 24°15' W 046°03'.

Length 300 m; draft 11.9 m.

Type: Ship (hazmat cat A). MMSI: 636014647.

Date/timePositionNaut miles runAvg speedWind from/ knotsBaromVisibWave heightAir tempDewpointWater temp
2016-May-05 01:33S 24°15' W 046°03'1313.6
2016-May-05 00:33S 24°15' W 046°18'1211.8
2016-May-04 23:34S 24°04' W 046°22'7 7.2
2016-May-04 22:32S 23°58' W 046°18'0 0.3
2016-May-04 21:28S 23°58' W 046°18'0 0.0
2016-May-04 20:28S 23°58' W 046°18'0 0.0
2016-May-04 19:28S 23°58' W 046°18'0 0.0
2016-May-04 18:10S 23°58' W 046°18'0 0.0
2016-May-04 17:25S 23°58' W 046°18'0 0.0
2016-May-04 16:28S 23°58' W 046°18'0 0.0
2016-May-04 15:28S 23°58' W 046°18'0 0.0
2016-May-04 14:31S 23°58' W 046°18'0 0.0
2016-May-04 13:25S 23°58' W 046°18'0 0.0
2016-May-04 12:31S 23°58' W 046°18'0 0.0
2016-May-04 11:28S 23°58' W 046°18'0 0.0
2016-May-04 09:28S 23°58' W 046°18'0 0.0
2016-May-04 08:28S 23°58' W 046°18'1 0.6
2016-May-04 07:33S 23°59' W 046°17'9 8.6
2016-May-04 06:33S 24°06' W 046°22'2 1.5
2016-May-04 05:33S 24°08' W 046°22'0 0.2
2016-May-04 04:33S 24°08' W 046°22'0 0.1
2016-May-04 03:33S 24°08' W 046°22'1010.1
2016-May-04 02:33S 24°16' W 046°28'1515.0
2016-May-04 01:33S 24°29' W 046°37'1514.7
2016-May-04 00:33S 24°40' W 046°48'  
2016-Apr-28 21:33S 24°35' W 046°42'1313.4
2016-Apr-28 20:33S 24°25' W 046°34'1313.5
2016-Apr-28 19:33S 24°13' W 046°27'1312.9
2016-Apr-28 18:34S 24°01' W 046°21'4 1.2
2016-Apr-28 15:32S 23°58' W 046°18'0 0.0
2016-Apr-28 14:32S 23°58' W 046°18'0 0.0
2016-Apr-28 13:17S 23°58' W 046°18'0 0.0
2016-Apr-28 12:32S 23°58' W 046°18'0 0.0
2016-Apr-28 11:32S 23°58' W 046°18'0 0.0
2016-Apr-28 09:32S 23°58' W 046°18'0 0.0
2016-Apr-28 08:20S 23°58' W 046°18'0 0.0
2016-Apr-28 07:32S 23°58' W 046°18'0 0.0
2016-Apr-28 06:32S 23°58' W 046°18'0 0.0
2016-Apr-28 05:26S 23°58' W 046°18'0 0.0
2016-Apr-28 04:23S 23°58' W 046°18'0 0.0
2016-Apr-28 03:32S 23°58' W 046°18'0 0.0
2016-Apr-28 02:17S 23°58' W 046°18'0 0.0
2016-Apr-28 00:05S 23°58' W 046°18'0 0.0
2016-Apr-27 19:29S 23°58' W 046°18'0 0.0
2016-Apr-27 18:32S 23°58' W 046°18'0 0.0
2016-Apr-27 17:23S 23°58' W 046°18'0 0.0
2016-Apr-27 15:17S 23°58' W 046°18'0 0.0
2016-Apr-27 14:14S 23°58' W 046°18'0 0.0
2016-Apr-27 13:32S 23°58' W 046°18'0 0.0
2016-Apr-27 10:32S 23°58' W 046°18'0 0.0
2016-Apr-27 08:29S 23°58' W 046°18'0 0.0
2016-Apr-27 07:17S 23°58' W 046°18'0 0.0
2016-Apr-27 06:26S 23°58' W 046°18'0 0.0
2016-Apr-27 05:32S 23°58' W 046°18'0 0.0
2016-Apr-27 04:20S 23°58' W 046°18'0 0.0
2016-Apr-27 01:29S 23°58' W 046°18'3 3.1
2016-Apr-27 00:33S 24°00' W 046°20'8 7.8
2016-Apr-26 23:33S 24°08' W 046°21'4 4.0
2016-Apr-26 22:33S 24°12' W 046°21'10 9.7
2016-Apr-26 21:33S 24°15' W 046°11'1212.0
2016-Apr-26 20:33S 24°15' W 045°58'1212.2
2016-Apr-26 19:33S 24°15' W 045°45'1211.7
2016-Apr-26 18:33S 24°13' W 045°32'1212.4
2016-Apr-26 17:33S 24°06' W 045°21'  
Track history (hours):
 
Tides and Currents Weather Stations Pressure Air Temp Water Temp Dewpoint Dewpoint Depression Visibility Wind Speed Wind Dir Waves Ship Positions

Tubul

Last reported at 2016-May-05 01:33 UTC. Time now 2016-May-06 20:43 UTC.
Position S 24°15' W 046°03'.

Length 300 m; draft 11.9 m.

Type: Ship (hazmat cat A). MMSI: 636014647.

Date/timePositionNaut miles runAvg speedWind from/ knotsBaromVisibWave heightAir tempDewpointWater temp
2016-May-05 01:33S 24°15' W 046°03'1313.6
2016-May-05 00:33S 24°15' W 046°18'1211.8
2016-May-04 23:34S 24°04' W 046°22'7 7.2
2016-May-04 22:32S 23°58' W 046°18'0 0.3
2016-May-04 21:28S 23°58' W 046°18'0 0.0
2016-May-04 20:28S 23°58' W 046°18'0 0.0
2016-May-04 19:28S 23°58' W 046°18'0 0.0
2016-May-04 18:10S 23°58' W 046°18'0 0.0
2016-May-04 17:25S 23°58' W 046°18'0 0.0
2016-May-04 16:28S 23°58' W 046°18'0 0.0
2016-May-04 15:28S 23°58' W 046°18'0 0.0
2016-May-04 14:31S 23°58' W 046°18'0 0.0
2016-May-04 13:25S 23°58' W 046°18'0 0.0
2016-May-04 12:31S 23°58' W 046°18'0 0.0
2016-May-04 11:28S 23°58' W 046°18'0 0.0
2016-May-04 09:28S 23°58' W 046°18'0 0.0
2016-May-04 08:28S 23°58' W 046°18'1 0.6
2016-May-04 07:33S 23°59' W 046°17'9 8.6
2016-May-04 06:33S 24°06' W 046°22'2 1.5
2016-May-04 05:33S 24°08' W 046°22'0 0.2
2016-May-04 04:33S 24°08' W 046°22'0 0.1
2016-May-04 03:33S 24°08' W 046°22'1010.1
2016-May-04 02:33S 24°16' W 046°28'1515.0
2016-May-04 01:33S 24°29' W 046°37'1514.7
2016-May-04 00:33S 24°40' W 046°48'  
2016-Apr-28 21:33S 24°35' W 046°42'1313.4
2016-Apr-28 20:33S 24°25' W 046°34'1313.5
2016-Apr-28 19:33S 24°13' W 046°27'1312.9
2016-Apr-28 18:34S 24°01' W 046°21'4 1.2
2016-Apr-28 15:32S 23°58' W 046°18'0 0.0
2016-Apr-28 14:32S 23°58' W 046°18'0 0.0
2016-Apr-28 13:17S 23°58' W 046°18'0 0.0
2016-Apr-28 12:32S 23°58' W 046°18'0 0.0
2016-Apr-28 11:32S 23°58' W 046°18'0 0.0
2016-Apr-28 09:32S 23°58' W 046°18'0 0.0
2016-Apr-28 08:20S 23°58' W 046°18'0 0.0
2016-Apr-28 07:32S 23°58' W 046°18'0 0.0
2016-Apr-28 06:32S 23°58' W 046°18'0 0.0
2016-Apr-28 05:26S 23°58' W 046°18'0 0.0
2016-Apr-28 04:23S 23°58' W 046°18'0 0.0
2016-Apr-28 03:32S 23°58' W 046°18'0 0.0
2016-Apr-28 02:17S 23°58' W 046°18'0 0.0
2016-Apr-28 00:05S 23°58' W 046°18'0 0.0
2016-Apr-27 19:29S 23°58' W 046°18'0 0.0
2016-Apr-27 18:32S 23°58' W 046°18'0 0.0
2016-Apr-27 17:23S 23°58' W 046°18'0 0.0
2016-Apr-27 15:17S 23°58' W 046°18'0 0.0
2016-Apr-27 14:14S 23°58' W 046°18'0 0.0
2016-Apr-27 13:32S 23°58' W 046°18'0 0.0
2016-Apr-27 10:32S 23°58' W 046°18'0 0.0
2016-Apr-27 08:29S 23°58' W 046°18'0 0.0
2016-Apr-27 07:17S 23°58' W 046°18'0 0.0
2016-Apr-27 06:26S 23°58' W 046°18'0 0.0
2016-Apr-27 05:32S 23°58' W 046°18'0 0.0
2016-Apr-27 04:20S 23°58' W 046°18'0 0.0
2016-Apr-27 01:29S 23°58' W 046°18'3 3.1
2016-Apr-27 00:33S 24°00' W 046°20'8 7.8
2016-Apr-26 23:33S 24°08' W 046°21'4 4.0
2016-Apr-26 22:33S 24°12' W 046°21'10 9.7
2016-Apr-26 21:33S 24°15' W 046°11'1212.0
2016-Apr-26 20:33S 24°15' W 045°58'1212.2
2016-Apr-26 19:33S 24°15' W 045°45'1211.7
2016-Apr-26 18:33S 24°13' W 045°32'1212.4
2016-Apr-26 17:33S 24°06' W 045°21'  

Dump ship's entire track history